Time;durP1;ratioP1;P1;durP2;ratioP2;P2;SDS_P1;SDS_P2;PMS_P1;PMS_P2;Temp;Humidity;BMP_temperature;BMP_pressure;BME280_temperature;BME280_humidity;BME280_pressure;Samples;Min_cycle;Max_cycle;Signal;HPM_P1;HPM_P2
2022/02/27 00:01:48;;;;;;;10.32;6.45;;;4.70;70.70;;;;;;5077771;28;20030;-61
2022/02/27 00:04:14;;;;;;;9.05;6.05;;;4.70;70.60;;;;;;5081840;28;20070;-61
2022/02/27 00:06:39;;;;;;;8.48;6.32;;;4.70;70.50;;;;;;5073239;28;20492;-61
2022/02/27 00:09:06;;;;;;;8.68;6.10;;;4.70;70.70;;;;;;5076814;28;20039;-61
2022/02/27 00:11:31;;;;;;;11.27;6.60;;;4.70;70.60;;;;;;5074971;28;20029;-61
2022/02/27 00:13:57;;;;;;;8.65;5.22;;;4.70;70.70;;;;;;5092909;28;20020;-61
2022/02/27 00:16:23;;;;;;;9.52;5.97;;;4.70;70.80;;;;;;5080883;28;20020;-61
2022/02/27 00:18:48;;;;;;;8.27;5.25;;;4.70;71.10;;;;;;5073504;28;20397;-61
2022/02/27 00:21:14;;;;;;;9.02;5.20;;;4.70;71.10;;;;;;5073218;28;20077;-61
2022/02/27 00:23:39;;;;;;;10.45;5.97;;;4.70;71.10;;;;;;5085148;28;20039;-61
2022/02/27 00:26:05;;;;;;;7.70;5.55;;;4.70;71.10;;;;;;5084636;28;20035;-61
2022/02/27 00:28:31;;;;;;;6.07;4.30;;;4.70;71.10;;;;;;5093471;28;20036;-61
2022/02/27 00:30:57;;;;;;;8.18;5.43;;;4.70;71.10;;;;;;5093488;28;20024;-61
2022/02/27 00:33:22;;;;;;;8.52;4.90;;;4.70;71.20;;;;;;5089030;28;20025;-61
2022/02/27 00:35:49;;;;;;;8.52;6.03;;;4.70;71.10;;;;;;5072675;28;20048;-61
2022/02/27 00:38:14;;;;;;;6.65;4.50;;;4.70;71.50;;;;;;5085765;28;20100;-61
2022/02/27 00:40:40;;;;;;;8.30;5.07;;;4.70;71.50;;;;;;5073355;28;20121;-61
2022/02/27 00:43:06;;;;;;;10.27;6.82;;;4.70;71.50;;;;;;5087103;28;20020;-61
2022/02/27 00:45:33;;;;;;;8.38;5.72;;;4.70;71.70;;;;;;5087243;28;20044;-61
2022/02/27 00:47:59;;;;;;;7.38;5.32;;;4.70;71.60;;;;;;5072780;28;20373;-61
2022/02/27 00:50:25;;;;;;;9.38;6.63;;;4.60;71.70;;;;;;5085829;28;20479;-61
2022/02/27 00:52:50;;;;;;;10.25;6.90;;;4.60;71.80;;;;;;5091806;28;20058;-61
2022/02/27 00:55:16;;;;;;;9.40;5.40;;;4.60;71.90;;;;;;5089982;28;20029;-61
2022/02/27 00:57:42;;;;;;;10.98;7.05;;;4.60;71.80;;;;;;5072426;28;20475;-61
2022/02/27 01:00:08;;;;;;;8.27;5.03;;;4.70;72.00;;;;;;5073028;28;20056;-61
2022/02/27 01:02:34;;;;;;;8.55;5.47;;;4.60;71.80;;;;;;5078974;28;20028;-61
2022/02/27 01:05:00;;;;;;;9.65;6.53;;;4.60;72.00;;;;;;5078931;28;20029;-61
2022/02/27 01:07:27;;;;;;;10.75;6.25;;;4.60;71.80;;;;;;5096824;28;20028;-61
2022/02/27 01:09:53;;;;;;;8.23;6.28;;;4.60;71.80;;;;;;5096823;28;20486;-61
2022/02/27 01:12:19;;;;;;;10.57;5.65;;;4.60;71.90;;;;;;5095806;28;20110;-61
2022/02/27 01:14:46;;;;;;;8.45;6.47;;;4.60;72.00;;;;;;5094153;28;20027;-61
2022/02/27 01:17:12;;;;;;;9.07;6.07;;;4.60;71.90;;;;;;5081599;28;20074;-61
2022/02/27 01:19:38;;;;;;;12.15;6.90;;;4.50;72.00;;;;;;5085577;28;20036;-61
2022/02/27 01:22:04;;;;;;;9.02;5.25;;;4.50;72.30;;;;;;5081147;28;20111;-61
2022/02/27 01:24:30;;;;;;;9.57;5.80;;;4.50;72.50;;;;;;5083848;28;20103;-61
2022/02/27 01:26:56;;;;;;;9.82;5.82;;;4.50;72.70;;;;;;5094342;28;20024;-61
2022/02/27 01:29:21;;;;;;;8.50;6.10;;;4.50;72.70;;;;;;5095955;28;20431;-61
2022/02/27 01:31:47;;;;;;;8.20;5.80;;;4.50;72.70;;;;;;5077297;28;20132;-61
2022/02/27 01:34:13;;;;;;;10.43;5.13;;;4.50;72.60;;;;;;5076254;28;20024;-61
2022/02/27 01:36:38;;;;;;;9.32;5.50;;;4.50;72.50;;;;;;5079060;28;20039;-61
2022/02/27 01:39:04;;;;;;;8.90;6.03;;;4.50;72.50;;;;;;5090575;28;20482;-61
2022/02/27 01:41:30;;;;;;;9.02;6.38;;;4.50;72.60;;;;;;5085583;28;20456;-61
2022/02/27 01:43:56;;;;;;;8.27;6.53;;;4.50;72.70;;;;;;5086957;28;20426;-61
2022/02/27 01:46:21;;;;;;;7.47;4.85;;;4.50;72.90;;;;;;5095561;28;20081;-61
2022/02/27 01:48:47;;;;;;;10.25;6.43;;;4.50;72.90;;;;;;5094466;28;20020;-61
2022/02/27 01:51:13;;;;;;;6.78;5.25;;;4.50;73.10;;;;;;5094277;28;20403;-61
2022/02/27 01:53:38;;;;;;;10.48;6.75;;;4.50;72.90;;;;;;5095169;28;20031;-61
2022/02/27 01:56:05;;;;;;;10.00;6.65;;;4.50;73.10;;;;;;5074763;28;20028;-61
2022/02/27 01:58:31;;;;;;;9.10;5.72;;;4.60;73.00;;;;;;5093500;28;20111;-61
2022/02/27 02:00:58;;;;;;;11.07;6.07;;;4.50;72.80;;;;;;5094582;28;20456;-61
2022/02/27 02:03:25;;;;;;;9.23;6.38;;;4.50;72.90;;;;;;5094978;28;20081;-61
2022/02/27 02:05:51;;;;;;;10.38;5.88;;;4.50;72.90;;;;;;5094917;28;20028;-61
2022/02/27 02:08:17;;;;;;;7.90;5.57;;;4.50;72.90;;;;;;5093654;28;20047;-61
2022/02/27 02:10:43;;;;;;;8.85;6.32;;;4.60;72.80;;;;;;5094690;28;20028;-61
2022/02/27 02:13:10;;;;;;;7.78;5.30;;;4.60;72.80;;;;;;5095046;28;20024;-61
2022/02/27 02:15:36;;;;;;;7.72;5.93;;;4.60;72.80;;;;;;5093013;28;20024;-61
2022/02/27 02:18:05;;;;;;;8.05;5.22;;;4.60;72.90;;;;;;5085815;28;20025;-61
2022/02/27 02:20:31;;;;;;;9.07;5.55;;;4.60;72.90;;;;;;5089465;28;20025;-63
2022/02/27 02:22:57;;;;;;;8.73;6.18;;;4.60;72.90;;;;;;5094650;28;20369;-61
2022/02/27 02:25:22;;;;;;;8.88;5.80;;;4.60;73.00;;;;;;5093548;28;20031;-61
2022/02/27 02:27:48;;;;;;;9.50;6.97;;;4.60;72.90;;;;;;5093550;28;20361;-61
2022/02/27 02:30:14;;;;;;;9.02;5.90;;;4.60;73.00;;;;;;5094625;28;20028;-61
2022/02/27 02:32:57;;;;;;;8.13;5.88;;;4.70;73.00;;;;;;5094943;28;20405;-61
2022/02/27 02:35:24;;;;;;;9.60;5.63;;;4.70;73.00;;;;;;5067763;28;20032;-61
2022/02/27 02:37:50;;;;;;;13.07;6.72;;;4.70;73.00;;;;;;5053334;28;20021;-61
2022/02/27 02:40:16;;;;;;;9.13;6.40;;;4.70;73.20;;;;;;5053963;28;20033;-61
2022/02/27 02:42:44;;;;;;;10.40;6.25;;;4.70;73.20;;;;;;5050434;28;20040;-61
2022/02/27 02:45:11;;;;;;;9.27;6.75;;;4.70;73.20;;;;;;5051385;28;20021;-61
2022/02/27 02:47:46;;;;;;;11.60;6.35;;;4.70;73.30;;;;;;5053581;28;20033;-61
2022/02/27 02:50:13;;;;;;;10.50;6.57;;;4.80;73.30;;;;;;5050242;28;20373;-61
2022/02/27 02:52:39;;;;;;;8.82;5.38;;;4.80;73.40;;;;;;5051080;28;20067;-61
2022/02/27 02:55:11;;;;;;;10.57;7.63;;;4.80;73.30;;;;;;5052389;28;20029;-61
2022/02/27 02:57:37;;;;;;;7.53;5.65;;;4.80;73.20;;;;;;5049325;28;20056;-61
2022/02/27 03:00:05;;;;;;;9.48;6.93;;;4.80;73.00;;;;;;5051485;28;20056;-61
2022/02/27 03:02:31;;;;;;;8.10;5.72;;;4.80;73.00;;;;;;5050226;28;20053;-61
2022/02/27 03:04:57;;;;;;;10.38;5.97;;;4.80;73.00;;;;;;5053453;28;20484;-61
2022/02/27 03:07:22;;;;;;;9.85;6.80;;;4.70;73.20;;;;;;5052973;28;20082;-61
2022/02/27 03:09:48;;;;;;;10.40;5.82;;;4.70;73.30;;;;;;5052834;28;20025;-61
2022/02/27 03:12:14;;;;;;;9.77;6.13;;;4.70;73.30;;;;;;5051173;28;20040;-61
2022/02/27 03:14:40;;;;;;;12.13;6.50;;;4.60;73.40;;;;;;5050806;28;20025;-61
2022/02/27 03:17:06;;;;;;;11.27;4.93;;;4.70;73.50;;;;;;5054157;28;20029;-61
2022/02/27 03:19:31;;;;;;;7.90;5.47;;;4.60;73.30;;;;;;5052227;28;20032;-61
2022/02/27 03:21:57;;;;;;;9.75;6.18;;;4.60;73.40;;;;;;5053024;28;20028;-61
2022/02/27 03:24:23;;;;;;;7.45;6.00;;;4.50;73.40;;;;;;5039315;28;20026;-61
2022/02/27 03:26:48;;;;;;;8.85;5.13;;;4.50;73.40;;;;;;5033886;28;20053;-61
2022/02/27 03:29:14;;;;;;;8.48;5.82;;;4.40;73.40;;;;;;5043149;28;20090;-61
2022/02/27 03:31:40;;;;;;;9.32;5.47;;;4.40;73.40;;;;;;5046543;28;20041;-61
2022/02/27 03:34:05;;;;;;;10.30;6.60;;;4.30;73.40;;;;;;5049191;28;20368;-61
2022/02/27 03:36:31;;;;;;;9.73;6.05;;;4.20;73.50;;;;;;5092995;28;20028;-61
2022/02/27 03:38:56;;;;;;;8.73;5.53;;;4.20;73.60;;;;;;5092769;28;20099;-61
2022/02/27 03:41:22;;;;;;;10.50;6.57;;;4.10;73.60;;;;;;5093252;28;20405;-61
2022/02/27 03:43:48;;;;;;;8.65;5.10;;;4.10;73.80;;;;;;5089889;28;20021;-61
2022/02/27 03:46:14;;;;;;;11.65;5.40;;;4.00;73.70;;;;;;5093205;28;20071;-61
2022/02/27 03:48:40;;;;;;;8.27;5.15;;;3.90;73.70;;;;;;5085382;28;20437;-61
2022/02/27 03:51:07;;;;;;;9.10;5.60;;;3.90;73.90;;;;;;5093105;28;20392;-61
2022/02/27 03:53:32;;;;;;;9.30;5.28;;;3.90;74.10;;;;;;5083986;28;20036;-61
2022/02/27 03:55:58;;;;;;;9.35;5.55;;;3.80;74.10;;;;;;5075545;28;20012;-61
2022/02/27 03:58:24;;;;;;;8.98;5.30;;;3.80;74.20;;;;;;5094077;28;20027;-61
2022/02/27 04:00:50;;;;;;;8.38;5.40;;;3.80;74.30;;;;;;5087788;28;20036;-61
2022/02/27 04:03:15;;;;;;;8.70;4.85;;;3.80;74.30;;;;;;5077086;28;20032;-61
2022/02/27 04:05:41;;;;;;;7.13;5.10;;;3.70;74.40;;;;;;5076659;28;20063;-61
2022/02/27 04:08:08;;;;;;;7.28;4.82;;;3.70;74.50;;;;;;5085456;28;20028;-61
2022/02/27 04:10:34;;;;;;;7.35;5.47;;;3.70;74.50;;;;;;5091010;28;20476;-61
2022/02/27 04:12:59;;;;;;;9.18;4.78;;;3.70;74.60;;;;;;5091673;28;20030;-61
2022/02/27 04:15:25;;;;;;;9.02;4.88;;;3.70;74.50;;;;;;5072664;28;20048;-61
2022/02/27 04:17:51;;;;;;;7.97;5.10;;;3.80;74.60;;;;;;5090045;28;20373;-61
2022/02/27 04:20:17;;;;;;;9.07;5.80;;;3.70;74.40;;;;;;5085373;28;20085;-61
2022/02/27 04:22:44;;;;;;;9.63;6.00;;;3.70;74.40;;;;;;5073047;28;20431;-60
2022/02/27 04:25:10;;;;;;;7.75;5.30;;;3.70;74.30;;;;;;5072701;28;20035;-61
2022/02/27 04:27:36;;;;;;;8.50;4.57;;;3.70;74.40;;;;;;5087221;28;20103;-61
2022/02/27 04:30:02;;;;;;;8.48;4.95;;;3.70;74.40;;;;;;5085743;28;20481;-61
2022/02/27 04:32:28;;;;;;;7.53;4.78;;;3.70;74.30;;;;;;5078388;28;20111;-61
2022/02/27 04:34:53;;;;;;;8.82;5.30;;;3.70;74.40;;;;;;5084169;28;20102;-61
2022/02/27 04:37:19;;;;;;;9.45;6.15;;;3.70;74.40;;;;;;5074283;28;20024;-61
2022/02/27 04:39:45;;;;;;;8.82;5.35;;;3.70;74.30;;;;;;5074213;28;20036;-61
2022/02/27 04:42:11;;;;;;;9.50;5.28;;;3.70;74.40;;;;;;5072571;28;20043;-61
2022/02/27 04:44:36;;;;;;;6.35;4.25;;;3.70;74.40;;;;;;5072459;28;20033;-61
2022/02/27 04:47:02;;;;;;;6.75;4.78;;;3.70;74.40;;;;;;5072348;28;20040;-61
2022/02/27 04:49:28;;;;;;;7.00;5.28;;;3.60;74.50;;;;;;5085861;28;20033;-61
2022/02/27 04:51:53;;;;;;;8.02;5.13;;;3.70;74.70;;;;;;5072274;28;20044;-61
2022/02/27 04:54:20;;;;;;;6.78;4.68;;;3.70;74.60;;;;;;5074859;28;20032;-61
2022/02/27 04:56:45;;;;;;;7.18;5.22;;;3.70;74.80;;;;;;5089130;28;20107;-61
2022/02/27 04:59:11;;;;;;;6.72;4.63;;;3.70;74.80;;;;;;5072246;28;20088;-60
2022/02/27 05:01:39;;;;;;;7.18;4.85;;;3.80;74.90;;;;;;5075074;28;20840;-61
2022/02/27 05:04:04;;;;;;;8.07;5.28;;;3.80;74.80;;;;;;5072164;28;20024;-61
2022/02/27 05:06:30;;;;;;;6.25;4.60;;;3.90;74.80;;;;;;5072310;28;20116;-61
2022/02/27 05:08:56;;;;;;;8.35;4.68;;;3.90;74.70;;;;;;5073435;28;20020;-61
2022/02/27 05:11:21;;;;;;;6.95;5.32;;;4.00;74.60;;;;;;5091945;28;20505;-61
2022/02/27 05:13:47;;;;;;;8.07;4.53;;;4.00;74.60;;;;;;5087818;28;20057;-61
2022/02/27 05:16:12;;;;;;;10.30;4.53;;;4.10;74.60;;;;;;5076695;28;20577;-61
2022/02/27 05:18:38;;;;;;;8.10;4.75;;;4.10;74.60;;;;;;5088170;28;20042;-61
2022/02/27 05:21:04;;;;;;;6.25;4.57;;;4.10;75.00;;;;;;5089970;28;20403;-61
2022/02/27 05:23:29;;;;;;;7.85;4.88;;;4.20;74.30;;;;;;5072065;28;20496;-61
2022/02/27 05:25:58;;;;;;;7.57;4.90;;;4.20;74.30;;;;;;5080830;28;20024;-61
2022/02/27 05:28:25;;;;;;;8.30;5.20;;;4.20;74.10;;;;;;5075695;28;20043;-61
2022/02/27 05:30:52;;;;;;;8.43;6.10;;;4.20;74.20;;;;;;5077256;28;20036;-61
2022/02/27 05:33:18;;;;;;;8.13;4.88;;;4.30;74.70;;;;;;5081027;28;20012;-61
2022/02/27 05:35:43;;;;;;;8.23;5.82;;;4.30;73.90;;;;;;5091875;28;20044;-61
2022/02/27 05:38:09;;;;;;;8.55;4.50;;;4.30;73.70;;;;;;5090999;28;20032;-61
2022/02/27 05:40:34;;;;;;;7.40;5.57;;;4.30;73.60;;;;;;5091759;28;20173;-61
2022/02/27 05:43:00;;;;;;;9.38;6.35;;;4.40;73.60;;;;;;5082723;28;20079;-61
2022/02/27 05:45:26;;;;;;;8.50;4.90;;;4.40;73.50;;;;;;5078990;28;20028;-61
2022/02/27 05:47:51;;;;;;;9.65;5.53;;;4.40;73.40;;;;;;5090665;28;20077;-61
2022/02/27 05:50:17;;;;;;;7.43;5.45;;;4.50;73.60;;;;;;5090940;28;20028;-61
2022/02/27 05:52:43;;;;;;;8.40;5.65;;;4.50;73.50;;;;;;5085138;28;20024;-61
2022/02/27 05:55:09;;;;;;;8.25;4.45;;;4.60;73.60;;;;;;5076156;28;20020;-61
2022/02/27 05:57:35;;;;;;;7.93;5.35;;;4.60;73.60;;;;;;5075237;28;20025;-61
2022/02/27 06:00:03;;;;;;;6.03;4.10;;;4.70;73.70;;;;;;5075174;28;20039;-61
2022/02/27 06:02:28;;;;;;;6.20;4.10;;;4.70;73.50;;;;;;5088662;28;20031;-61
2022/02/27 06:04:54;;;;;;;7.40;4.47;;;4.70;73.40;;;;;;5084586;28;20033;-61
2022/02/27 06:07:20;;;;;;;8.38;4.55;;;4.70;73.40;;;;;;5075231;28;20060;-61
2022/02/27 06:09:45;;;;;;;5.68;3.72;;;4.80;73.30;;;;;;5081251;28;20506;-61
2022/02/27 06:12:11;;;;;;;4.72;3.63;;;4.80;73.20;;;;;;5095291;28;20144;-61
2022/02/27 06:14:37;;;;;;;6.22;4.55;;;4.90;73.10;;;;;;5080314;28;20411;-61
2022/02/27 06:17:03;;;;;;;8.18;5.03;;;4.90;72.70;;;;;;5093740;28;20025;-61
2022/02/27 06:19:28;;;;;;;6.13;4.13;;;5.00;72.60;;;;;;5084919;28;20125;-61
2022/02/27 06:21:54;;;;;;;6.43;3.38;;;5.10;72.50;;;;;;5083168;28;20063;-61
2022/02/27 06:24:19;;;;;;;5.63;4.15;;;5.10;72.20;;;;;;5074839;28;20377;-61
2022/02/27 06:26:45;;;;;;;5.25;3.33;;;5.20;72.60;;;;;;5074729;28;20021;-61
2022/02/27 06:29:11;;;;;;;3.97;2.80;;;5.20;71.20;;;;;;5089642;28;20028;-61
2022/02/27 06:31:36;;;;;;;5.85;3.50;;;5.30;71.10;;;;;;5090278;28;20024;-61
2022/02/27 06:34:02;;;;;;;5.32;3.58;;;5.30;71.10;;;;;;5094512;28;20103;-61
2022/02/27 06:36:28;;;;;;;4.10;2.88;;;5.40;70.80;;;;;;5094968;28;20032;-61
2022/02/27 06:38:53;;;;;;;6.15;3.53;;;5.40;70.70;;;;;;5090398;28;20025;-61
2022/02/27 06:41:20;;;;;;;5.47;3.72;;;5.40;70.50;;;;;;5074393;28;20024;-61
2022/02/27 06:43:46;;;;;;;5.57;3.88;;;5.50;70.40;;;;;;5083172;28;20028;-61
2022/02/27 06:46:12;;;;;;;7.07;3.90;;;5.60;70.20;;;;;;5076851;28;20495;-61
2022/02/27 06:48:38;;;;;;;5.30;3.40;;;5.60;70.00;;;;;;5077003;28;20434;-61
2022/02/27 06:51:03;;;;;;;5.95;4.10;;;5.60;69.90;;;;;;5094416;28;20040;-61
2022/02/27 06:53:29;;;;;;;5.15;3.45;;;5.60;70.00;;;;;;5087787;28;20025;-61
2022/02/27 06:55:55;;;;;;;5.07;3.90;;;5.60;69.80;;;;;;5074622;28;20031;-61
2022/02/27 06:58:20;;;;;;;5.60;3.85;;;5.70;69.60;;;;;;5073968;28;20025;-61
2022/02/27 07:00:46;;;;;;;6.32;4.20;;;5.70;69.50;;;;;;5074101;28;20028;-61
2022/02/27 07:03:12;;;;;;;5.32;3.47;;;5.70;69.40;;;;;;5090847;28;20035;-61
2022/02/27 07:05:38;;;;;;;6.18;4.25;;;5.70;69.40;;;;;;5083156;28;20035;-61
2022/02/27 07:08:05;;;;;;;8.68;4.70;;;5.70;69.40;;;;;;5073897;28;20107;-61
2022/02/27 07:10:31;;;;;;;6.80;4.03;;;5.70;69.20;;;;;;5073985;28;20032;-61
2022/02/27 07:12:56;;;;;;;5.57;4.07;;;5.70;69.00;;;;;;5074327;28;20020;-61
2022/02/27 07:15:22;;;;;;;7.35;4.47;;;5.80;69.10;;;;;;5090383;28;20028;-61
2022/02/27 07:17:47;;;;;;;5.00;4.00;;;5.80;68.90;;;;;;5094232;28;20028;-61
2022/02/27 07:20:13;;;;;;;6.72;4.07;;;5.80;68.80;;;;;;5080803;28;20021;-61
2022/02/27 07:22:39;;;;;;;6.25;4.10;;;5.80;68.80;;;;;;5083980;28;20464;-61
2022/02/27 07:25:06;;;;;;;5.35;3.50;;;5.80;68.80;;;;;;5093664;28;20031;-61
2022/02/27 07:27:32;;;;;;;8.38;4.50;;;5.90;68.50;;;;;;5086709;28;20031;-61
2022/02/27 07:29:59;;;;;;;7.10;4.18;;;5.90;68.40;;;;;;5078738;28;20107;-61
2022/02/27 07:32:25;;;;;;;6.28;4.07;;;5.90;68.40;;;;;;5089693;28;20062;-61
2022/02/27 07:34:51;;;;;;;5.95;4.10;;;5.90;68.20;;;;;;5079877;28;20036;-61
2022/02/27 07:37:16;;;;;;;5.38;4.32;;;6.00;68.20;;;;;;5073473;28;20017;-61
2022/02/27 07:39:42;;;;;;;5.93;3.60;;;6.00;68.10;;;;;;5086253;28;20029;-61
2022/02/27 07:42:08;;;;;;;5.70;3.75;;;6.00;68.10;;;;;;5091920;28;20060;-61
2022/02/27 07:44:33;;;;;;;5.53;4.05;;;6.00;68.00;;;;;;5086171;28;20028;-61
2022/02/27 07:47:00;;;;;;;6.85;4.50;;;6.10;68.10;;;;;;5078919;28;20031;-61
2022/02/27 07:49:26;;;;;;;6.20;4.05;;;6.10;67.90;;;;;;5091251;28;20501;-61
2022/02/27 07:51:53;;;;;;;5.28;3.97;;;6.20;67.70;;;;;;5093059;28;20032;-61
2022/02/27 07:54:18;;;;;;;5.00;4.25;;;6.20;67.50;;;;;;5093149;28;20484;-61
2022/02/27 07:56:45;;;;;;;5.20;3.65;;;6.30;67.50;;;;;;5081005;28;20021;-61
2022/02/27 07:59:11;;;;;;;6.55;4.30;;;6.30;67.50;;;;;;5091199;28;20438;-61
2022/02/27 08:01:37;;;;;;;4.63;3.88;;;6.30;67.20;;;;;;5091317;28;20479;-61
2022/02/27 08:04:02;;;;;;;6.93;4.13;;;6.30;67.20;;;;;;5090019;28;20097;-61
2022/02/27 08:06:28;;;;;;;5.90;3.75;;;6.40;67.00;;;;;;5092699;28;20507;-61
2022/02/27 08:08:55;;;;;;;5.40;4.13;;;6.40;66.80;;;;;;5091629;28;20024;-61
2022/02/27 08:11:21;;;;;;;4.57;3.78;;;6.50;66.70;;;;;;5092118;28;20032;-61
2022/02/27 08:13:47;;;;;;;9.77;4.30;;;6.50;66.70;;;;;;5087312;28;20024;-61
2022/02/27 08:16:12;;;;;;;4.47;3.60;;;6.50;66.60;;;;;;5092323;28;20020;-61
2022/02/27 08:18:38;;;;;;;6.43;4.20;;;6.60;66.50;;;;;;5092853;28;20016;-61
2022/02/27 08:21:04;;;;;;;5.00;4.07;;;6.60;66.40;;;;;;5082154;28;20577;-61
2022/02/27 08:23:30;;;;;;;7.05;4.15;;;6.70;66.20;;;;;;5092602;28;20028;-62
2022/02/27 08:25:59;;;;;;;4.85;3.47;;;6.70;66.10;;;;;;5092239;28;20077;-63
2022/02/27 08:28:25;;;;;;;6.95;4.07;;;6.80;66.00;;;;;;5091827;28;20043;-62
2022/02/27 08:30:50;;;;;;;6.38;4.78;;;6.80;66.00;;;;;;5086208;28;20119;-62
2022/02/27 08:33:16;;;;;;;5.95;4.22;;;6.90;65.90;;;;;;5079941;28;20120;-62
2022/02/27 08:35:42;;;;;;;4.65;3.55;;;6.90;66.20;;;;;;5088718;28;20039;-62
2022/02/27 08:38:08;;;;;;;4.53;3.88;;;7.00;65.50;;;;;;5090386;28;20472;-62
2022/02/27 08:40:33;;;;;;;4.03;3.47;;;7.00;65.20;;;;;;5081873;28;20028;-62
2022/02/27 08:43:01;;;;;;;5.63;3.83;;;7.00;64.80;;;;;;5091391;28;20469;-62
2022/02/27 08:45:27;;;;;;;4.78;3.45;;;7.00;64.80;;;;;;5091521;28;20718;-62
2022/02/27 08:47:54;;;;;;;5.15;3.50;;;7.10;64.60;;;;;;5091250;28;20027;-62
2022/02/27 08:50:20;;;;;;;4.35;3.58;;;7.10;64.20;;;;;;5086857;28;20434;-61
2022/02/27 08:52:46;;;;;;;4.82;3.45;;;7.10;63.90;;;;;;5092411;28;20130;-62
2022/02/27 08:55:15;;;;;;;5.28;3.22;;;7.20;63.90;;;;;;5085816;28;20107;-62
2022/02/27 08:57:41;;;;;;;3.97;3.40;;;7.20;63.70;;;;;;5085245;28;20363;-61
2022/02/27 09:00:09;;;;;;;3.85;2.95;;;7.20;63.70;;;;;;5090832;28;20035;-61
2022/02/27 09:02:36;;;;;;;3.63;2.90;;;7.30;63.40;;;;;;5087221;28;20533;-61
2022/02/27 09:05:01;;;;;;;3.17;2.70;;;7.30;62.90;;;;;;5089438;28;20131;-62
2022/02/27 09:07:27;;;;;;;3.58;2.78;;;7.30;62.50;;;;;;5083908;28;20103;-62
2022/02/27 09:09:53;;;;;;;3.80;2.72;;;7.40;61.80;;;;;;5083671;28;20059;-62
2022/02/27 09:12:18;;;;;;;3.03;2.55;;;7.40;61.40;;;;;;5080325;28;20021;-62
2022/02/27 09:14:45;;;;;;;6.65;2.90;;;7.50;61.30;;;;;;5085485;28;20069;-61
2022/02/27 09:17:12;;;;;;;3.40;2.63;;;7.50;61.30;;;;;;5084603;28;20105;-62
2022/02/27 09:19:38;;;;;;;4.13;2.85;;;7.60;61.30;;;;;;5090742;28;20046;-62
2022/02/27 09:22:04;;;;;;;3.40;2.83;;;7.60;61.10;;;;;;5084665;28;20040;-61
2022/02/27 09:24:30;;;;;;;3.20;2.90;;;7.60;61.00;;;;;;5091512;28;20557;-61
2022/02/27 09:26:56;;;;;;;3.92;3.00;;;7.70;60.70;;;;;;5089810;28;20028;-61
2022/02/27 09:29:23;;;;;;;4.15;3.10;;;7.70;60.50;;;;;;5086688;28;20046;-61
2022/02/27 09:31:49;;;;;;;3.10;2.55;;;7.70;60.30;;;;;;5091810;28;20433;-62
2022/02/27 09:34:14;;;;;;;2.55;2.30;;;7.70;60.30;;;;;;5092454;28;20048;-61
2022/02/27 09:36:40;;;;;;;3.05;2.10;;;7.70;59.50;;;;;;5093182;28;20032;-61
2022/02/27 09:39:07;;;;;;;2.63;2.20;;;7.70;59.50;;;;;;5094124;28;20028;-62
2022/02/27 09:41:33;;;;;;;3.60;2.30;;;7.70;59.50;;;;;;5089125;28;20086;-62
2022/02/27 09:44:01;;;;;;;2.97;2.20;;;7.70;59.30;;;;;;5086499;28;20071;-62
2022/02/27 09:46:28;;;;;;;2.88;2.40;;;7.70;58.90;;;;;;5089803;28;20028;-62
2022/02/27 09:48:56;;;;;;;2.60;2.40;;;7.70;58.90;;;;;;5095025;28;20027;-61
2022/02/27 09:51:23;;;;;;;3.03;2.30;;;7.70;59.10;;;;;;5091530;28;20448;-61
2022/02/27 09:53:49;;;;;;;2.60;2.20;;;7.70;59.10;;;;;;5093834;28;20121;-61
2022/02/27 09:56:15;;;;;;;2.60;2.40;;;7.70;59.10;;;;;;5093410;28;20024;-61
2022/02/27 09:58:42;;;;;;;2.00;1.90;;;7.70;59.00;;;;;;5093981;28;20028;-61
2022/02/27 10:01:08;;;;;;;2.33;2.13;;;7.80;59.10;;;;;;5091957;28;20035;-61
2022/02/27 10:03:34;;;;;;;3.40;2.22;;;7.80;58.80;;;;;;5085738;28;20028;-61
2022/02/27 10:06:09;;;;;;;3.08;2.40;;;7.80;58.90;;;;;;5094934;28;20434;-61
2022/02/27 10:08:44;;;;;;;2.83;2.10;;;7.80;58.60;;;;;;5088513;28;20028;-61
2022/02/27 10:11:17;;;;;;;2.70;2.30;;;7.80;58.70;;;;;;5089395;28;20388;-61
2022/02/27 10:13:46;;;;;;;3.50;2.30;;;7.80;58.90;;;;;;5088763;28;20028;-62
2022/02/27 10:16:19;;;;;;;3.22;2.15;;;7.80;58.50;;;;;;5095656;28;20044;-62
2022/02/27 10:18:50;;;;;;;2.63;2.10;;;7.80;58.30;;;;;;5090801;28;20027;-62
2022/02/27 10:21:36;;;;;;;4.13;2.72;;;7.80;58.30;;;;;;5087135;28;20506;-61
2022/02/27 10:24:04;;;;;;;2.58;2.38;;;7.90;58.10;;;;;;5087034;28;20028;-61
2022/02/27 10:26:31;;;;;;;2.53;2.20;;;7.90;57.80;;;;;;5092468;28;20059;-61
2022/02/27 10:29:11;;;;;;;2.15;1.98;;;7.90;57.80;;;;;;5089943;28;20030;-61
2022/02/27 10:31:39;;;;;;;2.40;2.10;;;7.90;57.60;;;;;;5087955;28;20089;-61
2022/02/27 10:34:14;;;;;;;2.90;2.53;;;7.90;57.50;;;;;;5093738;28;20028;-61
2022/02/27 10:37:06;;;;;;;2.33;2.10;;;7.90;57.10;;;;;;5085819;28;20047;-62
2022/02/27 10:39:43;;;;;;;3.40;2.20;;;8.00;57.00;;;;;;5085349;28;20017;-62
2022/02/27 10:42:30;;;;;;;2.53;2.00;;;8.00;57.00;;;;;;5090335;28;20423;-62
2022/02/27 10:44:57;;;;;;;3.38;2.42;;;8.00;56.80;;;;;;5088837;28;20464;-62
2022/02/27 10:47:29;;;;;;;2.90;2.30;;;8.00;57.20;;;;;;5087137;28;20504;-62
2022/02/27 10:49:56;;;;;;;2.97;2.35;;;8.10;57.10;;;;;;5091147;28;20085;-62
2022/02/27 10:52:26;;;;;;;3.08;2.30;;;8.10;57.30;;;;;;5091927;28;20054;-61
2022/02/27 10:55:00;;;;;;;2.45;2.20;;;8.10;57.40;;;;;;5091099;28;20024;-61
2022/02/27 10:57:30;;;;;;;2.58;2.10;;;8.20;57.50;;;;;;5091710;28;20024;-62
2022/02/27 11:00:00;;;;;;;3.08;2.30;;;8.20;57.60;;;;;;5090977;28;20039;-61
2022/02/27 11:02:28;;;;;;;4.50;2.58;;;8.20;57.40;;;;;;5085026;28;20027;-61
2022/02/27 11:04:55;;;;;;;3.60;2.97;;;8.20;57.20;;;;;;5083555;28;20028;-61
2022/02/27 11:07:21;;;;;;;2.55;2.33;;;8.20;57.10;;;;;;5088169;28;20036;-61
2022/02/27 11:09:47;;;;;;;3.38;2.30;;;8.30;57.10;;;;;;5092798;28;20027;-61
2022/02/27 11:12:15;;;;;;;2.85;2.50;;;8.30;57.10;;;;;;5093355;28;20032;-61
2022/02/27 11:14:46;;;;;;;3.70;2.65;;;8.30;57.20;;;;;;5093307;28;20032;-61
2022/02/27 11:17:12;;;;;;;2.55;2.35;;;8.30;56.80;;;;;;5084359;28;20035;-61
2022/02/27 11:19:38;;;;;;;2.60;2.40;;;8.30;56.60;;;;;;5093275;28;20471;-61
2022/02/27 11:22:07;;;;;;;2.50;2.10;;;8.30;56.50;;;;;;5086060;28;20032;-61
2022/02/27 11:24:35;;;;;;;4.63;2.20;;;8.40;56.20;;;;;;5089642;28;20032;-61
2022/02/27 11:27:06;;;;;;;2.15;1.85;;;8.30;56.00;;;;;;5088127;28;20032;-61
2022/02/27 11:29:32;;;;;;;2.30;2.10;;;8.30;55.50;;;;;;5092535;28;20365;-61
2022/02/27 11:32:00;;;;;;;2.50;2.30;;;8.30;55.40;;;;;;5093265;28;20036;-61
2022/02/27 11:34:27;;;;;;;2.58;2.17;;;8.30;55.30;;;;;;5092213;28;20032;-61
2022/02/27 11:36:54;;;;;;;4.80;3.55;;;8.20;55.20;;;;;;5085960;28;20452;-61
2022/02/27 11:42:04;;;;;;;4.07;2.67;;;8.20;55.90;;;;;;5087774;28;20569;-62
2022/02/27 11:44:34;;;;;;;2.50;2.30;;;8.10;56.20;;;;;;5088731;28;20526;-61
2022/02/27 11:47:08;;;;;;;2.72;2.30;;;8.10;56.60;;;;;;5085271;28;20028;-62
2022/02/27 11:49:40;;;;;;;2.55;1.92;;;8.00;56.60;;;;;;5092379;28;20028;-62
2022/02/27 11:52:13;;;;;;;2.50;1.90;;;8.00;56.20;;;;;;5087731;28;20046;-61
2022/02/27 11:54:45;;;;;;;2.97;1.85;;;7.90;55.30;;;;;;5088027;28;20050;-62
2022/02/27 11:57:13;;;;;;;3.05;1.80;;;7.90;55.40;;;;;;5089864;28;20040;-61
2022/02/27 11:59:59;;;;;;;1.70;1.60;;;7.80;55.60;;;;;;5091574;28;20027;-61
2022/02/27 12:02:33;;;;;;;2.00;1.80;;;7.80;54.90;;;;;;5087846;28;20268;-61
2022/02/27 12:05:02;;;;;;;1.90;1.80;;;7.70;54.70;;;;;;5091746;28;20032;-61
2022/02/27 12:07:28;;;;;;;1.75;1.65;;;7.80;55.00;;;;;;5088863;28;20035;-61
2022/02/27 12:09:58;;;;;;;2.25;2.05;;;7.70;54.00;;;;;;5093043;28;20024;-61
2022/02/27 12:12:42;;;;;;;3.35;2.08;;;7.70;53.90;;;;;;5092401;28;20050;-61
2022/02/27 12:15:16;;;;;;;1.90;1.80;;;7.70;53.40;;;;;;5084098;28;20031;-62
2022/02/27 12:17:57;;;;;;;2.58;1.83;;;7.70;53.20;;;;;;5085346;28;20443;-61
2022/02/27 12:20:59;;;;;;;1.92;1.70;;;7.70;53.10;;;;;;5079912;28;20048;-61
2022/02/27 12:23:28;;;;;;;2.53;1.88;;;7.70;52.90;;;;;;5062443;28;20564;-62
2022/02/27 12:25:56;;;;;;;2.35;1.80;;;7.60;53.30;;;;;;5081341;28;20024;-61
2022/02/27 12:28:52;;;;;;;1.90;1.75;;;7.60;53.40;;;;;;5086220;28;20422;-61
2022/02/27 12:31:30;;;;;;;1.80;1.70;;;7.60;52.70;;;;;;5080130;28;20028;-63
2022/02/27 12:34:00;;;;;;;2.40;2.00;;;7.60;52.60;;;;;;5085711;28;20499;-61
2022/02/27 12:36:36;;;;;;;2.10;1.90;;;7.60;52.80;;;;;;5082386;28;20020;-61
2022/02/27 12:39:13;;;;;;;2.47;1.80;;;7.60;52.80;;;;;;5086504;28;20463;-61
2022/02/27 12:41:48;;;;;;;1.83;1.73;;;7.60;53.00;;;;;;5089583;28;20504;-61
2022/02/27 12:44:26;;;;;;;2.22;2.05;;;7.60;52.80;;;;;;5090458;28;20028;-61
2022/02/27 12:46:53;;;;;;;2.08;1.92;;;7.60;52.60;;;;;;5084911;28;20035;-61
2022/02/27 12:52:17;;;;;;;4.70;2.03;;;7.60;52.20;;;;;;5087581;28;20472;-61
2022/02/27 12:54:51;;;;;;;1.63;1.52;;;7.60;52.40;;;;;;5071141;28;20057;-61
2022/02/27 12:57:17;;;;;;;3.67;2.15;;;7.60;52.70;;;;;;5070428;28;20046;-61
2022/02/27 12:59:44;;;;;;;3.22;1.85;;;7.70;52.80;;;;;;5082807;28;20020;-62
2022/02/27 13:02:14;;;;;;;1.92;1.70;;;7.70;52.80;;;;;;5080684;28;20036;-61